Terminal Aerodrome Forecast
Issued by NWS

Home | Current Version | Previous Version | Text Only | Print | Product List | Glossary On
Versions: 1 2 3 4 5 6 7 8 9 10 11 12 13 14
422
FTUS46 KSEW 140545
TAFPAE
TAF
KPAE 140545Z 1406/1506 17015G25KT P6SM OVC006
     FM140900 17010KT 4SM BR OVC006
     FM141700 17010KT P6SM SCT006 BKN011 OVC020
     FM142300 17014KT P6SM -RA SCT008 BKN015 OVC025=

USA.gov is the U.S. government's official web portal to all federal, state and local government web resources and services.